createdAt,value
2018-02-24T17:35:34.815Z,18.10
2018-02-24T17:38:01.265Z,18.00
2018-02-24T17:40:27.729Z,17.90
2018-02-24T17:42:54.178Z,18.60
2018-02-24T17:45:20.640Z,18.60
2018-02-24T17:47:47.077Z,18.40
2018-02-24T17:50:13.533Z,18.30
2018-02-24T17:52:40.767Z,18.50
2018-02-24T17:55:07.220Z,18.50
2018-02-24T17:57:33.666Z,18.40
2018-02-24T18:00:00.123Z,18.20
2018-02-24T18:02:26.586Z,18.30
2018-02-24T18:04:53.062Z,17.80
2018-02-24T18:07:20.266Z,17.30
2018-02-24T18:09:46.741Z,17.30
2018-02-24T18:12:13.232Z,17.20
2018-02-24T18:14:39.675Z,17.20
2018-02-24T18:17:06.886Z,17.10
2018-02-24T18:19:33.348Z,17.10
2018-02-24T18:21:59.813Z,17.20
2018-02-24T18:25:12.924Z,17.00
2018-02-24T18:27:39.358Z,16.20
2018-02-24T18:30:05.847Z,15.80
2018-02-24T18:32:32.354Z,15.50
2018-02-24T18:34:58.784Z,15.40
2018-02-24T18:37:25.240Z,15.40
2018-02-24T18:39:51.698Z,15.30
2018-02-24T18:42:18.148Z,15.30
2018-02-24T18:44:44.588Z,15.30
2018-02-24T18:47:11.022Z,15.30
2018-02-24T18:49:37.476Z,15.20
2018-02-24T18:52:08.632Z,15.30
2018-02-24T18:54:35.091Z,15.30
2018-02-24T18:57:01.529Z,15.20
2018-02-24T18:59:28.003Z,15.20
2018-02-24T19:01:54.456Z,15.30
2018-02-24T19:04:20.960Z,15.30
2018-02-24T19:06:47.417Z,15.30
2018-02-24T19:09:13.887Z,15.30
2018-02-24T19:11:40.335Z,15.30
2018-02-24T19:14:06.817Z,15.30
2018-02-24T19:16:33.277Z,15.30
2018-02-24T19:18:59.751Z,15.30
2018-02-24T19:21:26.201Z,15.30
2018-02-24T19:23:52.674Z,15.30
2018-02-24T19:26:19.129Z,15.40
2018-02-24T19:28:46.372Z,15.40
2018-02-24T19:31:12.806Z,15.30
2018-02-24T19:33:39.275Z,15.40
2018-02-24T19:36:05.732Z,15.40
2018-02-24T19:38:32.965Z,15.40
2018-02-24T19:40:59.404Z,15.40
2018-02-24T19:43:25.885Z,15.40
2018-02-24T19:45:53.109Z,15.40
2018-02-24T19:48:19.563Z,15.40
2018-02-24T19:50:47.270Z,15.40
2018-02-24T19:53:14.578Z,15.40
2018-02-24T19:55:41.023Z,15.40
2018-02-24T19:58:07.461Z,15.40
2018-02-24T20:00:33.940Z,15.40
2018-02-24T20:03:01.296Z,15.40
2018-02-24T20:05:27.748Z,15.40
2018-02-24T20:07:54.198Z,15.40
2018-02-24T20:10:20.653Z,15.40
2018-02-24T20:12:47.103Z,15.50
2018-02-24T20:15:13.560Z,15.50
2018-02-24T20:17:40.017Z,15.50
2018-02-24T20:20:07.384Z,15.50
2018-02-24T20:22:34.606Z,15.50
2018-02-24T20:25:01.050Z,15.50
2018-02-24T20:27:27.516Z,15.50
2018-02-24T20:29:53.969Z,15.50
2018-02-24T20:32:20.410Z,15.50
2018-02-24T20:34:46.863Z,15.50
2018-02-24T20:37:14.084Z,15.50
2018-02-24T20:39:40.551Z,15.50
2018-02-24T20:42:06.997Z,15.70
2018-02-24T20:44:33.480Z,16.00
2018-02-24T20:47:00.708Z,16.10
2018-02-24T20:49:27.171Z,16.10
2018-02-24T20:51:53.685Z,16.10
2018-02-24T20:54:20.119Z,16.10
2018-02-24T20:56:46.563Z,16.10
2018-02-24T20:59:13.056Z,16.10
2018-02-24T21:01:41.015Z,16.30
2018-02-24T21:04:07.468Z,16.30
2018-02-24T21:06:33.909Z,16.60
2018-02-24T21:09:01.367Z,16.60
2018-02-24T21:11:27.817Z,16.50
2018-02-24T21:13:54.286Z,16.60
2018-02-24T21:16:20.759Z,16.60
2018-02-24T21:18:48.008Z,16.50
2018-02-24T21:21:15.236Z,16.40
2018-02-24T21:23:41.706Z,16.40
2018-02-24T21:26:08.163Z,16.40
2018-02-24T21:28:35.399Z,16.20
2018-02-24T21:31:01.838Z,16.20
2018-02-24T21:33:28.316Z,16.20
2018-02-24T21:35:54.749Z,16.10
2018-02-24T21:38:21.204Z,16.10
2018-02-24T21:40:47.661Z,16.10
2018-02-24T21:43:14.103Z,16.00
2018-02-24T21:45:40.564Z,16.00
2018-02-24T21:48:07.785Z,15.90
2018-02-24T21:50:34.230Z,15.90
2018-02-24T21:53:00.690Z,15.90
2018-02-24T21:55:27.158Z,15.80
2018-02-24T21:57:53.602Z,15.80
2018-02-24T22:00:20.038Z,15.80
2018-02-24T22:02:46.486Z,15.70
2018-02-24T22:05:12.927Z,15.70
2018-02-24T22:07:40.898Z,15.70
2018-02-24T22:10:07.365Z,15.70
2018-02-24T22:12:34.261Z,15.60
2018-02-24T22:15:00.870Z,15.60
2018-02-24T22:17:27.314Z,15.60
2018-02-24T22:19:53.769Z,15.60
2018-02-24T22:22:20.983Z,15.50
2018-02-24T22:24:47.432Z,15.50
2018-02-24T22:27:13.869Z,15.50
2018-02-24T22:29:40.349Z,15.50
2018-02-24T22:32:06.801Z,15.40
2018-02-24T22:34:33.285Z,15.40
2018-02-24T22:36:59.747Z,15.40
2018-02-24T22:39:26.265Z,15.40
2018-02-24T22:41:53.486Z,15.30
2018-02-24T22:44:19.946Z,15.30
2018-02-24T22:46:46.395Z,15.30
2018-02-24T22:49:12.875Z,15.30
2018-02-24T22:51:40.096Z,15.30
2018-02-24T22:54:06.565Z,15.30
2018-02-24T22:56:33.005Z,15.30
2018-02-24T22:59:00.256Z,15.30
2018-02-24T23:01:26.730Z,15.30
2018-02-24T23:03:53.997Z,15.20
2018-02-24T23:06:21.206Z,15.20
2018-02-24T23:08:47.661Z,15.20
2018-02-24T23:11:14.120Z,15.20
2018-02-24T23:13:40.600Z,15.20
2018-02-24T23:16:07.824Z,15.20
2018-02-24T23:18:34.285Z,15.20
2018-02-24T23:21:00.726Z,15.10
2018-02-24T23:23:27.199Z,15.10
2018-02-24T23:25:54.417Z,15.10
2018-02-24T23:28:20.863Z,15.10
2018-02-24T23:30:47.324Z,15.10
2018-02-24T23:33:13.772Z,15.10
2018-02-24T23:35:40.224Z,15.10
2018-02-24T23:38:06.677Z,15.10
2018-02-24T23:40:33.112Z,15.10
2018-02-24T23:42:59.561Z,15.10
2018-02-24T23:45:26.059Z,15.00
2018-02-24T23:47:52.488Z,15.00
2018-02-24T23:50:19.700Z,15.00
2018-02-24T23:52:46.139Z,15.00
2018-02-24T23:55:12.580Z,15.00
2018-02-24T23:57:39.016Z,15.00
